sensor_id;sensor_type;location;lat;lon;timestamp;temperature;humidity
60309;DHT22;50313;52.894;6.492;2023-05-07T00:00:40;13.50;99.90
60309;DHT22;50313;52.894;6.492;2023-05-07T00:03:06;13.50;99.90
60309;DHT22;50313;52.894;6.492;2023-05-07T00:05:32;13.50;99.90
60309;DHT22;50313;52.894;6.492;2023-05-07T00:07:58;13.50;99.90
60309;DHT22;50313;52.894;6.492;2023-05-07T00:10:23;13.50;99.90
60309;DHT22;50313;52.894;6.492;2023-05-07T00:12:50;13.50;99.90
60309;DHT22;50313;52.894;6.492;2023-05-07T00:15:16;13.50;99.90
60309;DHT22;50313;52.894;6.492;2023-05-07T00:17:42;13.50;99.90
60309;DHT22;50313;52.894;6.492;2023-05-07T00:20:08;13.40;99.90
60309;DHT22;50313;52.894;6.492;2023-05-07T00:22:34;13.40;99.90
60309;DHT22;50313;52.894;6.492;2023-05-07T00:25:00;13.40;99.90
60309;DHT22;50313;52.894;6.492;2023-05-07T00:27:25;13.40;99.90
60309;DHT22;50313;52.894;6.492;2023-05-07T00:29:51;13.40;99.90
60309;DHT22;50313;52.894;6.492;2023-05-07T00:32:17;13.40;99.90
60309;DHT22;50313;52.894;6.492;2023-05-07T00:34:43;13.30;99.90
60309;DHT22;50313;52.894;6.492;2023-05-07T00:37:09;13.30;99.90
60309;DHT22;50313;52.894;6.492;2023-05-07T00:39:35;13.30;99.90
60309;DHT22;50313;52.894;6.492;2023-05-07T00:42:01;13.30;99.90
60309;DHT22;50313;52.894;6.492;2023-05-07T00:44:28;13.30;99.90
60309;DHT22;50313;52.894;6.492;2023-05-07T00:46:56;13.30;99.90
60309;DHT22;50313;52.894;6.492;2023-05-07T00:49:30;13.30;99.90
60309;DHT22;50313;52.894;6.492;2023-05-07T00:51:59;13.20;99.90
60309;DHT22;50313;52.894;6.492;2023-05-07T00:54:26;13.20;99.90
60309;DHT22;50313;52.894;6.492;2023-05-07T00:56:52;13.20;99.90
60309;DHT22;50313;52.894;6.492;2023-05-07T00:59:17;13.10;99.90
60309;DHT22;50313;52.894;6.492;2023-05-07T01:01:44;13.10;99.90
60309;DHT22;50313;52.894;6.492;2023-05-07T01:04:10;13.10;99.90
60309;DHT22;50313;52.894;6.492;2023-05-07T01:06:35;13.00;99.90
60309;DHT22;50313;52.894;6.492;2023-05-07T01:09:01;13.00;99.90
60309;DHT22;50313;52.894;6.492;2023-05-07T01:11:30;13.00;99.90
60309;DHT22;50313;52.894;6.492;2023-05-07T01:13:56;12.90;99.90
60309;DHT22;50313;52.894;6.492;2023-05-07T01:16:24;12.90;99.90
60309;DHT22;50313;52.894;6.492;2023-05-07T01:18:50;12.90;99.90
60309;DHT22;50313;52.894;6.492;2023-05-07T01:21:18;12.90;99.90
60309;DHT22;50313;52.894;6.492;2023-05-07T01:23:44;12.80;99.90
60309;DHT22;50313;52.894;6.492;2023-05-07T01:26:11;12.80;99.90
60309;DHT22;50313;52.894;6.492;2023-05-07T01:28:37;12.70;99.90
60309;DHT22;50313;52.894;6.492;2023-05-07T01:31:03;12.70;99.90
60309;DHT22;50313;52.894;6.492;2023-05-07T01:33:34;12.70;99.90
60309;DHT22;50313;52.894;6.492;2023-05-07T01:36:00;12.60;99.90
60309;DHT22;50313;52.894;6.492;2023-05-07T01:38:29;12.60;99.90
60309;DHT22;50313;52.894;6.492;2023-05-07T01:40:55;12.60;99.90
60309;DHT22;50313;52.894;6.492;2023-05-07T01:43:24;12.50;99.90
60309;DHT22;50313;52.894;6.492;2023-05-07T01:45:50;12.50;99.90
60309;DHT22;50313;52.894;6.492;2023-05-07T01:48:15;12.50;99.90
60309;DHT22;50313;52.894;6.492;2023-05-07T01:50:44;12.50;99.90
60309;DHT22;50313;52.894;6.492;2023-05-07T01:53:10;12.40;99.90
60309;DHT22;50313;52.894;6.492;2023-05-07T01:55:36;12.40;99.90
60309;DHT22;50313;52.894;6.492;2023-05-07T01:58:05;12.40;99.90
60309;DHT22;50313;52.894;6.492;2023-05-07T02:00:31;12.30;99.90
60309;DHT22;50313;52.894;6.492;2023-05-07T02:02:57;12.30;99.90
60309;DHT22;50313;52.894;6.492;2023-05-07T02:05:23;12.30;99.90
60309;DHT22;50313;52.894;6.492;2023-05-07T02:07:49;12.20;99.90
60309;DHT22;50313;52.894;6.492;2023-05-07T02:10:15;12.20;99.90
60309;DHT22;50313;52.894;6.492;2023-05-07T02:12:40;12.20;99.90
60309;DHT22;50313;52.894;6.492;2023-05-07T02:15:08;12.10;99.90
60309;DHT22;50313;52.894;6.492;2023-05-07T02:17:34;12.10;99.90
60309;DHT22;50313;52.894;6.492;2023-05-07T02:20:00;12.10;99.90
60309;DHT22;50313;52.894;6.492;2023-05-07T02:22:26;12.10;99.90
60309;DHT22;50313;52.894;6.492;2023-05-07T02:24:52;12.00;99.90
60309;DHT22;50313;52.894;6.492;2023-05-07T02:27:18;12.00;99.90
60309;DHT22;50313;52.894;6.492;2023-05-07T02:29:44;11.90;99.90
60309;DHT22;50313;52.894;6.492;2023-05-07T02:32:09;11.90;99.90
60309;DHT22;50313;52.894;6.492;2023-05-07T02:34:35;11.90;99.90
60309;DHT22;50313;52.894;6.492;2023-05-07T02:37:01;11.90;99.90
60309;DHT22;50313;52.894;6.492;2023-05-07T02:39:26;11.90;99.90
60309;DHT22;50313;52.894;6.492;2023-05-07T02:41:52;11.90;99.90
60309;DHT22;50313;52.894;6.492;2023-05-07T02:44:18;11.90;99.90
60309;DHT22;50313;52.894;6.492;2023-05-07T02:46:43;11.80;99.90
60309;DHT22;50313;52.894;6.492;2023-05-07T02:49:09;11.80;99.90
60309;DHT22;50313;52.894;6.492;2023-05-07T02:51:35;11.80;99.90
60309;DHT22;50313;52.894;6.492;2023-05-07T02:54:01;11.70;99.90
60309;DHT22;50313;52.894;6.492;2023-05-07T02:56:27;11.70;99.90
60309;DHT22;50313;52.894;6.492;2023-05-07T02:58:52;11.70;99.90
60309;DHT22;50313;52.894;6.492;2023-05-07T03:01:18;11.60;99.90
60309;DHT22;50313;52.894;6.492;2023-05-07T03:03:44;11.60;99.90
60309;DHT22;50313;52.894;6.492;2023-05-07T03:06:10;11.60;99.90
60309;DHT22;50313;52.894;6.492;2023-05-07T03:08:36;11.60;99.90
60309;DHT22;50313;52.894;6.492;2023-05-07T03:11:02;11.50;99.90
60309;DHT22;50313;52.894;6.492;2023-05-07T03:13:28;11.60;99.90
60309;DHT22;50313;52.894;6.492;2023-05-07T03:15:53;11.50;99.90
60309;DHT22;50313;52.894;6.492;2023-05-07T03:18:19;11.40;99.90
60309;DHT22;50313;52.894;6.492;2023-05-07T03:20:45;11.50;99.90
60309;DHT22;50313;52.894;6.492;2023-05-07T03:23:11;11.50;99.90
60309;DHT22;50313;52.894;6.492;2023-05-07T03:25:37;11.50;99.90
60309;DHT22;50313;52.894;6.492;2023-05-07T03:28:03;11.50;99.90
60309;DHT22;50313;52.894;6.492;2023-05-07T03:30:28;11.40;99.90
60309;DHT22;50313;52.894;6.492;2023-05-07T03:32:54;11.50;99.90
60309;DHT22;50313;52.894;6.492;2023-05-07T03:35:20;11.40;99.90
60309;DHT22;50313;52.894;6.492;2023-05-07T03:37:45;11.40;99.90
60309;DHT22;50313;52.894;6.492;2023-05-07T03:40:11;11.40;99.90
60309;DHT22;50313;52.894;6.492;2023-05-07T03:42:37;11.40;99.90
60309;DHT22;50313;52.894;6.492;2023-05-07T03:45:03;11.40;99.90
60309;DHT22;50313;52.894;6.492;2023-05-07T03:47:29;11.40;99.90
60309;DHT22;50313;52.894;6.492;2023-05-07T03:49:55;11.40;99.90
60309;DHT22;50313;52.894;6.492;2023-05-07T03:52:21;11.40;99.90
60309;DHT22;50313;52.894;6.492;2023-05-07T03:54:52;11.40;99.90
60309;DHT22;50313;52.894;6.492;2023-05-07T03:57:18;11.40;99.90
60309;DHT22;50313;52.894;6.492;2023-05-07T03:59:43;11.40;99.90
60309;DHT22;50313;52.894;6.492;2023-05-07T04:02:09;11.30;99.90
60309;DHT22;50313;52.894;6.492;2023-05-07T04:04:35;11.30;99.90
60309;DHT22;50313;52.894;6.492;2023-05-07T04:07:01;11.30;99.90
60309;DHT22;50313;52.894;6.492;2023-05-07T04:09:26;11.30;99.90
60309;DHT22;50313;52.894;6.492;2023-05-07T04:11:52;11.30;99.90
60309;DHT22;50313;52.894;6.492;2023-05-07T04:14:18;11.30;99.90
60309;DHT22;50313;52.894;6.492;2023-05-07T04:16:44;11.30;99.90
60309;DHT22;50313;52.894;6.492;2023-05-07T04:19:09;11.30;99.90
60309;DHT22;50313;52.894;6.492;2023-05-07T04:21:35;11.30;99.90
60309;DHT22;50313;52.894;6.492;2023-05-07T04:24:03;11.30;99.90
60309;DHT22;50313;52.894;6.492;2023-05-07T04:26:29;11.30;99.90
60309;DHT22;50313;52.894;6.492;2023-05-07T04:28:54;11.30;99.90
60309;DHT22;50313;52.894;6.492;2023-05-07T04:31:20;11.30;99.90
60309;DHT22;50313;52.894;6.492;2023-05-07T04:33:46;11.20;99.90
60309;DHT22;50313;52.894;6.492;2023-05-07T04:36:12;11.30;99.90
60309;DHT22;50313;52.894;6.492;2023-05-07T04:38:37;11.30;99.90
60309;DHT22;50313;52.894;6.492;2023-05-07T04:41:05;11.30;99.90
60309;DHT22;50313;52.894;6.492;2023-05-07T04:43:31;11.30;99.90
60309;DHT22;50313;52.894;6.492;2023-05-07T04:45:57;11.30;99.90
60309;DHT22;50313;52.894;6.492;2023-05-07T04:48:23;11.30;99.90
60309;DHT22;50313;52.894;6.492;2023-05-07T04:50:49;11.30;99.90
60309;DHT22;50313;52.894;6.492;2023-05-07T04:53:15;11.30;99.90
60309;DHT22;50313;52.894;6.492;2023-05-07T04:55:41;11.30;99.90
60309;DHT22;50313;52.894;6.492;2023-05-07T04:58:08;11.30;99.90
60309;DHT22;50313;52.894;6.492;2023-05-07T05:00:34;11.30;99.90
60309;DHT22;50313;52.894;6.492;2023-05-07T05:02:59;11.30;99.90
60309;DHT22;50313;52.894;6.492;2023-05-07T05:05:25;11.30;99.90
60309;DHT22;50313;52.894;6.492;2023-05-07T05:07:51;11.30;99.90
60309;DHT22;50313;52.894;6.492;2023-05-07T05:10:17;11.30;99.90
60309;DHT22;50313;52.894;6.492;2023-05-07T05:12:43;11.30;99.90
60309;DHT22;50313;52.894;6.492;2023-05-07T05:15:11;11.30;99.90
60309;DHT22;50313;52.894;6.492;2023-05-07T05:17:38;11.30;99.90
60309;DHT22;50313;52.894;6.492;2023-05-07T05:20:04;11.30;99.90
60309;DHT22;50313;52.894;6.492;2023-05-07T05:22:31;11.30;99.90
60309;DHT22;50313;52.894;6.492;2023-05-07T05:24:57;11.30;99.90
60309;DHT22;50313;52.894;6.492;2023-05-07T05:27:23;11.30;99.90
60309;DHT22;50313;52.894;6.492;2023-05-07T05:29:49;11.40;99.90
60309;DHT22;50313;52.894;6.492;2023-05-07T05:32:15;11.30;99.90
60309;DHT22;50313;52.894;6.492;2023-05-07T05:34:41;11.30;99.90
60309;DHT22;50313;52.894;6.492;2023-05-07T05:37:06;11.40;99.90
60309;DHT22;50313;52.894;6.492;2023-05-07T05:39:32;11.40;99.90
60309;DHT22;50313;52.894;6.492;2023-05-07T05:41:58;11.40;99.90
60309;DHT22;50313;52.894;6.492;2023-05-07T05:44:24;11.50;99.90
60309;DHT22;50313;52.894;6.492;2023-05-07T05:46:50;11.50;99.90
60309;DHT22;50313;52.894;6.492;2023-05-07T05:49:16;11.60;99.90
60309;DHT22;50313;52.894;6.492;2023-05-07T05:51:43;11.70;99.90
60309;DHT22;50313;52.894;6.492;2023-05-07T05:54:09;11.70;99.90
60309;DHT22;50313;52.894;6.492;2023-05-07T05:56:36;11.70;99.90
60309;DHT22;50313;52.894;6.492;2023-05-07T05:59:02;11.80;99.90
60309;DHT22;50313;52.894;6.492;2023-05-07T06:01:28;11.80;99.90
60309;DHT22;50313;52.894;6.492;2023-05-07T06:03:54;11.90;99.90
60309;DHT22;50313;52.894;6.492;2023-05-07T06:06:20;11.90;99.90
60309;DHT22;50313;52.894;6.492;2023-05-07T06:08:46;12.00;99.90
60309;DHT22;50313;52.894;6.492;2023-05-07T06:11:11;12.00;99.90
60309;DHT22;50313;52.894;6.492;2023-05-07T06:13:37;12.00;99.90
60309;DHT22;50313;52.894;6.492;2023-05-07T06:16:03;11.90;99.90
60309;DHT22;50313;52.894;6.492;2023-05-07T06:18:29;12.00;99.90
60309;DHT22;50313;52.894;6.492;2023-05-07T06:20:55;11.90;99.90
60309;DHT22;50313;52.894;6.492;2023-05-07T06:23:20;11.90;99.90
60309;DHT22;50313;52.894;6.492;2023-05-07T06:25:50;11.90;99.90
60309;DHT22;50313;52.894;6.492;2023-05-07T06:28:16;11.90;99.90
60309;DHT22;50313;52.894;6.492;2023-05-07T06:30:42;11.90;99.90
60309;DHT22;50313;52.894;6.492;2023-05-07T06:33:08;11.80;99.90
60309;DHT22;50313;52.894;6.492;2023-05-07T06:35:34;11.90;99.90
60309;DHT22;50313;52.894;6.492;2023-05-07T06:38:00;11.90;99.90
60309;DHT22;50313;52.894;6.492;2023-05-07T06:40:26;12.00;99.90
60309;DHT22;50313;52.894;6.492;2023-05-07T06:42:52;12.10;99.90
60309;DHT22;50313;52.894;6.492;2023-05-07T06:45:18;12.20;99.90
60309;DHT22;50313;52.894;6.492;2023-05-07T06:47:44;12.30;99.90
60309;DHT22;50313;52.894;6.492;2023-05-07T06:50:10;12.40;99.90
60309;DHT22;50313;52.894;6.492;2023-05-07T06:52:36;12.40;99.90
60309;DHT22;50313;52.894;6.492;2023-05-07T06:55:02;12.40;99.90
60309;DHT22;50313;52.894;6.492;2023-05-07T06:57:28;12.50;99.90
60309;DHT22;50313;52.894;6.492;2023-05-07T06:59:53;12.50;99.90
60309;DHT22;50313;52.894;6.492;2023-05-07T07:02:19;12.70;99.90
60309;DHT22;50313;52.894;6.492;2023-05-07T07:04:45;12.70;99.90
60309;DHT22;50313;52.894;6.492;2023-05-07T07:07:11;12.80;99.90
60309;DHT22;50313;52.894;6.492;2023-05-07T07:09:36;12.90;99.90
60309;DHT22;50313;52.894;6.492;2023-05-07T07:12:02;13.00;99.90
60309;DHT22;50313;52.894;6.492;2023-05-07T07:14:28;13.10;99.90
60309;DHT22;50313;52.894;6.492;2023-05-07T07:16:56;13.20;99.90
60309;DHT22;50313;52.894;6.492;2023-05-07T07:19:22;13.10;99.90
60309;DHT22;50313;52.894;6.492;2023-05-07T07:21:48;13.30;99.90
60309;DHT22;50313;52.894;6.492;2023-05-07T07:24:14;13.20;99.90
60309;DHT22;50313;52.894;6.492;2023-05-07T07:26:44;13.40;99.90
60309;DHT22;50313;52.894;6.492;2023-05-07T07:29:10;13.40;99.90
60309;DHT22;50313;52.894;6.492;2023-05-07T07:31:38;13.40;99.90
60309;DHT22;50313;52.894;6.492;2023-05-07T07:34:04;13.40;99.90
60309;DHT22;50313;52.894;6.492;2023-05-07T07:36:29;13.50;99.90
60309;DHT22;50313;52.894;6.492;2023-05-07T07:38:58;13.40;99.90
60309;DHT22;50313;52.894;6.492;2023-05-07T07:41:24;13.50;99.90
60309;DHT22;50313;52.894;6.492;2023-05-07T07:43:49;13.50;99.90
60309;DHT22;50313;52.894;6.492;2023-05-07T07:46:15;13.60;99.90
60309;DHT22;50313;52.894;6.492;2023-05-07T07:48:41;13.70;99.90
60309;DHT22;50313;52.894;6.492;2023-05-07T07:51:07;13.80;99.90
60309;DHT22;50313;52.894;6.492;2023-05-07T07:53:32;14.00;99.90
60309;DHT22;50313;52.894;6.492;2023-05-07T07:56:01;14.10;99.90
60309;DHT22;50313;52.894;6.492;2023-05-07T07:58:26;14.10;99.90
60309;DHT22;50313;52.894;6.492;2023-05-07T08:00:52;13.90;99.90
60309;DHT22;50313;52.894;6.492;2023-05-07T08:03:18;14.00;99.90
60309;DHT22;50313;52.894;6.492;2023-05-07T08:05:45;14.10;99.90
60309;DHT22;50313;52.894;6.492;2023-05-07T08:08:11;14.20;99.90
60309;DHT22;50313;52.894;6.492;2023-05-07T08:10:36;14.10;99.90
60309;DHT22;50313;52.894;6.492;2023-05-07T08:13:03;14.10;99.90
60309;DHT22;50313;52.894;6.492;2023-05-07T08:15:30;14.30;99.90
60309;DHT22;50313;52.894;6.492;2023-05-07T08:17:56;14.10;99.90
60309;DHT22;50313;52.894;6.492;2023-05-07T08:20:23;14.20;99.90
60309;DHT22;50313;52.894;6.492;2023-05-07T08:22:52;14.20;99.90
60309;DHT22;50313;52.894;6.492;2023-05-07T08:25:18;14.30;99.90
60309;DHT22;50313;52.894;6.492;2023-05-07T08:27:44;14.30;99.90
60309;DHT22;50313;52.894;6.492;2023-05-07T08:30:10;14.70;99.90
60309;DHT22;50313;52.894;6.492;2023-05-07T08:32:36;14.80;99.90
60309;DHT22;50313;52.894;6.492;2023-05-07T08:35:02;15.00;99.90
60309;DHT22;50313;52.894;6.492;2023-05-07T08:37:28;14.80;99.90
60309;DHT22;50313;52.894;6.492;2023-05-07T08:39:54;15.00;99.90
60309;DHT22;50313;52.894;6.492;2023-05-07T08:42:21;15.20;99.90
60309;DHT22;50313;52.894;6.492;2023-05-07T08:44:51;15.40;99.90
60309;DHT22;50313;52.894;6.492;2023-05-07T08:47:21;15.40;99.90
60309;DHT22;50313;52.894;6.492;2023-05-07T08:49:48;15.20;99.90
60309;DHT22;50313;52.894;6.492;2023-05-07T08:52:15;15.50;99.90
60309;DHT22;50313;52.894;6.492;2023-05-07T08:54:41;15.40;99.90
60309;DHT22;50313;52.894;6.492;2023-05-07T08:57:06;15.50;99.90
60309;DHT22;50313;52.894;6.492;2023-05-07T08:59:35;15.40;99.90
60309;DHT22;50313;52.894;6.492;2023-05-07T09:02:02;15.40;99.90
60309;DHT22;50313;52.894;6.492;2023-05-07T09:04:28;15.10;99.90
60309;DHT22;50313;52.894;6.492;2023-05-07T09:06:53;15.30;99.90
60309;DHT22;50313;52.894;6.492;2023-05-07T09:09:21;15.30;99.90
60309;DHT22;50313;52.894;6.492;2023-05-07T09:11:47;15.60;99.90
60309;DHT22;50313;52.894;6.492;2023-05-07T09:14:13;15.50;99.90
60309;DHT22;50313;52.894;6.492;2023-05-07T09:16:38;15.60;99.90
60309;DHT22;50313;52.894;6.492;2023-05-07T09:19:04;15.40;99.90
60309;DHT22;50313;52.894;6.492;2023-05-07T09:21:30;15.40;99.90
60309;DHT22;50313;52.894;6.492;2023-05-07T09:23:57;15.50;99.90
60309;DHT22;50313;52.894;6.492;2023-05-07T09:26:23;15.60;99.90
60309;DHT22;50313;52.894;6.492;2023-05-07T09:28:49;15.70;99.90
60309;DHT22;50313;52.894;6.492;2023-05-07T09:31:15;15.70;99.90
60309;DHT22;50313;52.894;6.492;2023-05-07T09:33:44;15.90;99.90
60309;DHT22;50313;52.894;6.492;2023-05-07T09:36:10;16.10;99.90
60309;DHT22;50313;52.894;6.492;2023-05-07T09:38:37;16.00;99.90
60309;DHT22;50313;52.894;6.492;2023-05-07T09:41:11;16.10;99.90
60309;DHT22;50313;52.894;6.492;2023-05-07T09:43:38;16.10;99.90
60309;DHT22;50313;52.894;6.492;2023-05-07T09:46:12;16.30;99.90
60309;DHT22;50313;52.894;6.492;2023-05-07T09:48:39;16.50;99.90
60309;DHT22;50313;52.894;6.492;2023-05-07T09:51:25;16.60;99.90
60309;DHT22;50313;52.894;6.492;2023-05-07T09:53:54;16.50;99.90
60309;DHT22;50313;52.894;6.492;2023-05-07T09:56:22;16.60;99.90
60309;DHT22;50313;52.894;6.492;2023-05-07T09:58:49;17.00;99.90
60309;DHT22;50313;52.894;6.492;2023-05-07T10:01:19;16.90;99.90
60309;DHT22;50313;52.894;6.492;2023-05-07T10:03:48;16.80;99.90
60309;DHT22;50313;52.894;6.492;2023-05-07T10:06:15;17.20;99.90
60309;DHT22;50313;52.894;6.492;2023-05-07T10:08:45;17.20;99.90
60309;DHT22;50313;52.894;6.492;2023-05-07T10:11:11;17.60;99.90
60309;DHT22;50313;52.894;6.492;2023-05-07T10:14:06;17.50;99.90
60309;DHT22;50313;52.894;6.492;2023-05-07T10:16:44;17.60;99.90
60309;DHT22;50313;52.894;6.492;2023-05-07T10:19:14;17.80;99.90
60309;DHT22;50313;52.894;6.492;2023-05-07T10:22:01;17.60;99.90
60309;DHT22;50313;52.894;6.492;2023-05-07T10:24:33;17.70;99.90
60309;DHT22;50313;52.894;6.492;2023-05-07T10:27:05;17.30;99.90
60309;DHT22;50313;52.894;6.492;2023-05-07T10:29:49;17.40;99.90
60309;DHT22;50313;52.894;6.492;2023-05-07T10:32:39;17.70;99.90
60309;DHT22;50313;52.894;6.492;2023-05-07T10:35:10;17.80;99.90
60309;DHT22;50313;52.894;6.492;2023-05-07T10:37:37;17.70;99.90
60309;DHT22;50313;52.894;6.492;2023-05-07T10:40:04;17.80;99.90
60309;DHT22;50313;52.894;6.492;2023-05-07T10:42:30;17.70;99.90
60309;DHT22;50313;52.894;6.492;2023-05-07T10:45:10;17.80;99.90
60309;DHT22;50313;52.894;6.492;2023-05-07T10:48:06;17.70;99.90
60309;DHT22;50313;52.894;6.492;2023-05-07T10:50:34;17.80;99.90
60309;DHT22;50313;52.894;6.492;2023-05-07T10:55:44;17.90;99.90
60309;DHT22;50313;52.894;6.492;2023-05-07T10:58:30;18.10;99.90
60309;DHT22;50313;52.894;6.492;2023-05-07T11:01:02;18.20;99.90
60309;DHT22;50313;52.894;6.492;2023-05-07T11:03:28;18.30;99.90
60309;DHT22;50313;52.894;6.492;2023-05-07T11:06:14;18.50;99.90
60309;DHT22;50313;52.894;6.492;2023-05-07T11:08:53;18.40;99.90
60309;DHT22;50313;52.894;6.492;2023-05-07T11:11:46;18.50;99.90
60309;DHT22;50313;52.894;6.492;2023-05-07T11:14:57;18.60;99.90
60309;DHT22;50313;52.894;6.492;2023-05-07T11:17:23;18.50;99.90
60309;DHT22;50313;52.894;6.492;2023-05-07T11:19:53;18.80;99.90
60309;DHT22;50313;52.894;6.492;2023-05-07T11:25:05;18.90;99.90
60309;DHT22;50313;52.894;6.492;2023-05-07T11:27:31;19.20;99.90
60309;DHT22;50313;52.894;6.492;2023-05-07T11:29:57;19.30;99.90
60309;DHT22;50313;52.894;6.492;2023-05-07T11:32:24;19.40;99.90
60309;DHT22;50313;52.894;6.492;2023-05-07T11:34:54;19.60;99.90
60309;DHT22;50313;52.894;6.492;2023-05-07T11:37:21;19.80;99.90
60309;DHT22;50313;52.894;6.492;2023-05-07T11:39:47;19.70;99.90
60309;DHT22;50313;52.894;6.492;2023-05-07T11:42:30;19.80;99.90
60309;DHT22;50313;52.894;6.492;2023-05-07T11:44:56;20.10;99.90
60309;DHT22;50313;52.894;6.492;2023-05-07T11:47:25;20.00;99.90
60309;DHT22;50313;52.894;6.492;2023-05-07T11:50:03;19.80;99.90
60309;DHT22;50313;52.894;6.492;2023-05-07T11:52:33;19.50;99.90
60309;DHT22;50313;52.894;6.492;2023-05-07T11:55:00;19.80;99.90
60309;DHT22;50313;52.894;6.492;2023-05-07T11:57:27;20.00;99.90
60309;DHT22;50313;52.894;6.492;2023-05-07T11:59:58;20.00;99.90
60309;DHT22;50313;52.894;6.492;2023-05-07T12:02:24;20.30;99.90
60309;DHT22;50313;52.894;6.492;2023-05-07T12:04:51;20.20;99.90
60309;DHT22;50313;52.894;6.492;2023-05-07T12:07:17;20.30;99.90
60309;DHT22;50313;52.894;6.492;2023-05-07T12:09:46;20.20;99.90
60309;DHT22;50313;52.894;6.492;2023-05-07T12:12:13;20.60;99.90
60309;DHT22;50313;52.894;6.492;2023-05-07T12:14:44;21.00;99.90
60309;DHT22;50313;52.894;6.492;2023-05-07T12:17:12;20.90;99.90
60309;DHT22;50313;52.894;6.492;2023-05-07T12:19:44;20.90;99.90
60309;DHT22;50313;52.894;6.492;2023-05-07T12:22:11;20.90;99.20
60309;DHT22;50313;52.894;6.492;2023-05-07T12:24:47;20.50;99.50
60309;DHT22;50313;52.894;6.492;2023-05-07T12:27:14;20.70;99.90
60309;DHT22;50313;52.894;6.492;2023-05-07T12:29:47;20.80;99.00
60309;DHT22;50313;52.894;6.492;2023-05-07T12:32:21;20.70;98.50
60309;DHT22;50313;52.894;6.492;2023-05-07T12:34:57;20.70;98.70
60309;DHT22;50313;52.894;6.492;2023-05-07T12:37:32;20.80;99.20
60309;DHT22;50313;52.894;6.492;2023-05-07T12:43:04;21.40;99.80
60309;DHT22;50313;52.894;6.492;2023-05-07T12:45:39;21.20;96.50
60309;DHT22;50313;52.894;6.492;2023-05-07T12:48:10;21.80;98.80
60309;DHT22;50313;52.894;6.492;2023-05-07T12:50:36;21.60;98.30
60309;DHT22;50313;52.894;6.492;2023-05-07T12:53:11;21.30;95.40
60309;DHT22;50313;52.894;6.492;2023-05-07T12:56:05;21.10;99.60
60309;DHT22;50313;52.894;6.492;2023-05-07T13:02:50;21.00;96.50
60309;DHT22;50313;52.894;6.492;2023-05-07T13:05:16;21.30;97.30
60309;DHT22;50313;52.894;6.492;2023-05-07T13:07:55;21.20;96.60
60309;DHT22;50313;52.894;6.492;2023-05-07T13:10:22;21.00;97.00
60309;DHT22;50313;52.894;6.492;2023-05-07T13:12:49;21.00;96.40
60309;DHT22;50313;52.894;6.492;2023-05-07T13:15:15;20.90;97.20
60309;DHT22;50313;52.894;6.492;2023-05-07T13:17:41;20.70;96.30
60309;DHT22;50313;52.894;6.492;2023-05-07T13:20:08;20.90;96.70
60309;DHT22;50313;52.894;6.492;2023-05-07T13:22:34;21.20;96.90
60309;DHT22;50313;52.894;6.492;2023-05-07T13:25:00;21.50;97.50
60309;DHT22;50313;52.894;6.492;2023-05-07T13:27:26;21.60;98.30
60309;DHT22;50313;52.894;6.492;2023-05-07T13:29:51;21.70;96.00
60309;DHT22;50313;52.894;6.492;2023-05-07T13:32:20;22.10;96.30
60309;DHT22;50313;52.894;6.492;2023-05-07T13:34:45;22.60;97.20
60309;DHT22;50313;52.894;6.492;2023-05-07T13:37:14;22.10;93.60
60309;DHT22;50313;52.894;6.492;2023-05-07T13:39:40;22.20;95.30
60309;DHT22;50313;52.894;6.492;2023-05-07T13:42:08;22.50;95.60
60309;DHT22;50313;52.894;6.492;2023-05-07T13:44:34;22.10;93.70
60309;DHT22;50313;52.894;6.492;2023-05-07T13:47:00;21.70;94.10
60309;DHT22;50313;52.894;6.492;2023-05-07T13:49:26;21.50;94.80
60309;DHT22;50313;52.894;6.492;2023-05-07T13:51:52;21.30;96.10
60309;DHT22;50313;52.894;6.492;2023-05-07T13:54:20;21.20;95.60
60309;DHT22;50313;52.894;6.492;2023-05-07T13:56:46;21.30;98.30
60309;DHT22;50313;52.894;6.492;2023-05-07T13:59:12;21.00;96.80
60309;DHT22;50313;52.894;6.492;2023-05-07T14:01:42;21.00;96.70
60309;DHT22;50313;52.894;6.492;2023-05-07T14:04:10;20.80;96.10
60309;DHT22;50313;52.894;6.492;2023-05-07T14:06:36;20.70;96.40
60309;DHT22;50313;52.894;6.492;2023-05-07T14:09:02;20.70;96.90
60309;DHT22;50313;52.894;6.492;2023-05-07T14:11:29;20.70;96.90
60309;DHT22;50313;52.894;6.492;2023-05-07T14:13:55;20.70;96.70
60309;DHT22;50313;52.894;6.492;2023-05-07T14:16:22;20.70;98.30
60309;DHT22;50313;52.894;6.492;2023-05-07T14:18:48;20.50;97.80
60309;DHT22;50313;52.894;6.492;2023-05-07T14:21:16;20.50;98.30
60309;DHT22;50313;52.894;6.492;2023-05-07T14:23:42;20.30;98.00
60309;DHT22;50313;52.894;6.492;2023-05-07T14:26:08;20.20;98.90
60309;DHT22;50313;52.894;6.492;2023-05-07T14:28:36;20.10;99.90
60309;DHT22;50313;52.894;6.492;2023-05-07T14:31:05;20.30;99.90
60309;DHT22;50313;52.894;6.492;2023-05-07T14:33:31;20.20;99.90
60309;DHT22;50313;52.894;6.492;2023-05-07T14:35:57;20.20;99.30
60309;DHT22;50313;52.894;6.492;2023-05-07T14:38:23;20.10;98.20
60309;DHT22;50313;52.894;6.492;2023-05-07T14:40:49;20.20;99.50
60309;DHT22;50313;52.894;6.492;2023-05-07T14:43:15;20.10;98.70
60309;DHT22;50313;52.894;6.492;2023-05-07T14:45:40;20.00;98.30
60309;DHT22;50313;52.894;6.492;2023-05-07T14:48:06;19.90;98.30
60309;DHT22;50313;52.894;6.492;2023-05-07T14:50:32;20.00;99.10
60309;DHT22;50313;52.894;6.492;2023-05-07T14:52:58;20.10;99.20
60309;DHT22;50313;52.894;6.492;2023-05-07T14:55:23;20.20;98.90
60309;DHT22;50313;52.894;6.492;2023-05-07T14:57:49;20.00;98.10
60309;DHT22;50313;52.894;6.492;2023-05-07T15:00:15;20.30;99.70
60309;DHT22;50313;52.894;6.492;2023-05-07T15:02:49;20.50;99.90
60309;DHT22;50313;52.894;6.492;2023-05-07T15:05:15;20.40;99.50
60309;DHT22;50313;52.894;6.492;2023-05-07T15:07:40;20.70;99.20
60309;DHT22;50313;52.894;6.492;2023-05-07T15:10:06;20.80;98.50
60309;DHT22;50313;52.894;6.492;2023-05-07T15:12:32;20.80;97.90
60309;DHT22;50313;52.894;6.492;2023-05-07T15:14:58;20.90;96.40
60309;DHT22;50313;52.894;6.492;2023-05-07T15:17:24;20.80;96.10
60309;DHT22;50313;52.894;6.492;2023-05-07T15:19:50;21.30;96.90
60309;DHT22;50313;52.894;6.492;2023-05-07T15:22:20;21.90;95.30
60309;DHT22;50313;52.894;6.492;2023-05-07T15:24:57;22.10;94.60
60309;DHT22;50313;52.894;6.492;2023-05-07T15:27:24;22.60;93.60
60309;DHT22;50313;52.894;6.492;2023-05-07T15:29:50;22.90;92.80
60309;DHT22;50313;52.894;6.492;2023-05-07T15:32:16;23.00;93.20
60309;DHT22;50313;52.894;6.492;2023-05-07T15:34:42;22.90;92.20
60309;DHT22;50313;52.894;6.492;2023-05-07T15:37:12;22.60;91.10
60309;DHT22;50313;52.894;6.492;2023-05-07T15:39:38;22.20;91.60
60309;DHT22;50313;52.894;6.492;2023-05-07T15:42:04;22.00;92.90
60309;DHT22;50313;52.894;6.492;2023-05-07T15:44:30;22.00;93.40